sensor_id;sensor_type;location;lat;lon;timestamp;P1;durP1;ratioP1;P2;durP2;ratioP2
22060;SDS011;11194;48.092;-1.382;2024-03-02T00:02:12;389.85;;;368.80;;
22060;SDS011;11194;48.092;-1.382;2024-03-02T00:04:39;388.02;;;367.38;;
22060;SDS011;11194;48.092;-1.382;2024-03-02T00:07:06;372.10;;;352.52;;
22060;SDS011;11194;48.092;-1.382;2024-03-02T00:09:32;399.95;;;379.38;;
22060;SDS011;11194;48.092;-1.382;2024-03-02T00:11:59;382.77;;;362.65;;
22060;SDS011;11194;48.092;-1.382;2024-03-02T00:14:28;380.63;;;360.42;;
22060;SDS011;11194;48.092;-1.382;2024-03-02T00:16:55;368.67;;;349.25;;
22060;SDS011;11194;48.092;-1.382;2024-03-02T00:19:21;385.17;;;364.75;;
22060;SDS011;11194;48.092;-1.382;2024-03-02T00:21:48;364.40;;;346.13;;
22060;SDS011;11194;48.092;-1.382;2024-03-02T00:24:21;321.02;;;305.45;;
22060;SDS011;11194;48.092;-1.382;2024-03-02T00:26:47;310.08;;;295.35;;
22060;SDS011;11194;48.092;-1.382;2024-03-02T00:29:15;309.33;;;294.90;;
22060;SDS011;11194;48.092;-1.382;2024-03-02T00:31:41;305.08;;;291.13;;
22060;SDS011;11194;48.092;-1.382;2024-03-02T00:34:07;293.20;;;280.23;;
22060;SDS011;11194;48.092;-1.382;2024-03-02T00:36:36;279.00;;;266.83;;
22060;SDS011;11194;48.092;-1.382;2024-03-02T00:39:02;298.67;;;285.42;;
22060;SDS011;11194;48.092;-1.382;2024-03-02T00:41:31;295.40;;;282.40;;
22060;SDS011;11194;48.092;-1.382;2024-03-02T00:44:01;309.13;;;295.25;;
22060;SDS011;11194;48.092;-1.382;2024-03-02T00:46:29;293.95;;;281.23;;
22060;SDS011;11194;48.092;-1.382;2024-03-02T00:49:00;315.60;;;301.70;;
22060;SDS011;11194;48.092;-1.382;2024-03-02T00:51:26;329.85;;;314.98;;
22060;SDS011;11194;48.092;-1.382;2024-03-02T00:53:53;324.90;;;310.10;;
22060;SDS011;11194;48.092;-1.382;2024-03-02T00:56:21;308.30;;;294.48;;
22060;SDS011;11194;48.092;-1.382;2024-03-02T00:58:47;340.95;;;325.00;;
22060;SDS011;11194;48.092;-1.382;2024-03-02T01:01:14;330.65;;;315.35;;
22060;SDS011;11194;48.092;-1.382;2024-03-02T01:03:41;347.50;;;331.27;;
22060;SDS011;11194;48.092;-1.382;2024-03-02T01:06:07;327.67;;;312.42;;
22060;SDS011;11194;48.092;-1.382;2024-03-02T01:08:36;280.98;;;268.48;;
22060;SDS011;11194;48.092;-1.382;2024-03-02T01:11:02;277.98;;;266.02;;
22060;SDS011;11194;48.092;-1.382;2024-03-02T01:13:28;265.73;;;254.15;;
22060;SDS011;11194;48.092;-1.382;2024-03-02T01:15:54;260.33;;;249.32;;
22060;SDS011;11194;48.092;-1.382;2024-03-02T01:18:20;282.15;;;269.63;;
22060;SDS011;11194;48.092;-1.382;2024-03-02T01:20:47;285.05;;;272.05;;
22060;SDS011;11194;48.092;-1.382;2024-03-02T01:23:16;266.77;;;255.02;;
22060;SDS011;11194;48.092;-1.382;2024-03-02T01:25:42;277.13;;;264.67;;
22060;SDS011;11194;48.092;-1.382;2024-03-02T01:28:08;279.98;;;267.52;;
22060;SDS011;11194;48.092;-1.382;2024-03-02T01:30:34;285.33;;;272.75;;
22060;SDS011;11194;48.092;-1.382;2024-03-02T01:33:00;294.40;;;281.17;;
22060;SDS011;11194;48.092;-1.382;2024-03-02T01:35:27;316.75;;;302.02;;
22060;SDS011;11194;48.092;-1.382;2024-03-02T01:37:53;521.20;;;492.98;;
22060;SDS011;11194;48.092;-1.382;2024-03-02T01:40:19;525.97;;;498.25;;
22060;SDS011;11194;48.092;-1.382;2024-03-02T01:42:46;538.22;;;509.17;;
22060;SDS011;11194;48.092;-1.382;2024-03-02T01:45:12;502.02;;;476.20;;
22060;SDS011;11194;48.092;-1.382;2024-03-02T01:47:38;522.88;;;495.13;;
22060;SDS011;11194;48.092;-1.382;2024-03-02T01:50:04;507.10;;;480.88;;
22060;SDS011;11194;48.092;-1.382;2024-03-02T01:52:30;494.35;;;468.77;;
22060;SDS011;11194;48.092;-1.382;2024-03-02T01:54:56;496.85;;;471.38;;
22060;SDS011;11194;48.092;-1.382;2024-03-02T01:57:22;481.80;;;457.00;;
22060;SDS011;11194;48.092;-1.382;2024-03-02T01:59:48;507.10;;;480.30;;
22060;SDS011;11194;48.092;-1.382;2024-03-02T02:02:15;504.58;;;477.90;;
22060;SDS011;11194;48.092;-1.382;2024-03-02T02:04:42;487.58;;;462.35;;
22060;SDS011;11194;48.092;-1.382;2024-03-02T02:07:08;492.77;;;467.13;;
22060;SDS011;11194;48.092;-1.382;2024-03-02T02:09:34;514.97;;;487.67;;
22060;SDS011;11194;48.092;-1.382;2024-03-02T02:12:00;495.15;;;468.80;;
22060;SDS011;11194;48.092;-1.382;2024-03-02T02:14:26;496.55;;;470.52;;
22060;SDS011;11194;48.092;-1.382;2024-03-02T02:16:52;493.95;;;468.05;;
22060;SDS011;11194;48.092;-1.382;2024-03-02T02:19:18;505.45;;;478.55;;
22060;SDS011;11194;48.092;-1.382;2024-03-02T02:21:44;514.88;;;486.98;;
22060;SDS011;11194;48.092;-1.382;2024-03-02T02:24:10;516.33;;;488.08;;
22060;SDS011;11194;48.092;-1.382;2024-03-02T02:26:38;518.58;;;490.27;;
22060;SDS011;11194;48.092;-1.382;2024-03-02T02:29:04;522.40;;;494.20;;
22060;SDS011;11194;48.092;-1.382;2024-03-02T02:31:37;526.53;;;497.50;;
22060;SDS011;11194;48.092;-1.382;2024-03-02T02:34:04;510.25;;;483.10;;
22060;SDS011;11194;48.092;-1.382;2024-03-02T02:36:30;507.88;;;480.45;;
22060;SDS011;11194;48.092;-1.382;2024-03-02T02:38:56;511.02;;;483.42;;
22060;SDS011;11194;48.092;-1.382;2024-03-02T02:41:22;505.50;;;478.75;;
22060;SDS011;11194;48.092;-1.382;2024-03-02T02:43:48;489.92;;;463.98;;
22060;SDS011;11194;48.092;-1.382;2024-03-02T02:46:14;503.95;;;477.92;;
22060;SDS011;11194;48.092;-1.382;2024-03-02T02:48:40;498.42;;;472.15;;
22060;SDS011;11194;48.092;-1.382;2024-03-02T02:51:06;489.38;;;464.00;;
22060;SDS011;11194;48.092;-1.382;2024-03-02T02:53:32;470.85;;;447.33;;
22060;SDS011;11194;48.092;-1.382;2024-03-02T02:56:00;469.98;;;446.45;;
22060;SDS011;11194;48.092;-1.382;2024-03-02T02:58:26;454.90;;;432.35;;
22060;SDS011;11194;48.092;-1.382;2024-03-02T03:00:52;454.75;;;431.92;;
22060;SDS011;11194;48.092;-1.382;2024-03-02T03:03:21;469.73;;;445.85;;
22060;SDS011;11194;48.092;-1.382;2024-03-02T03:05:48;492.95;;;467.10;;
22060;SDS011;11194;48.092;-1.382;2024-03-02T03:08:14;477.55;;;453.23;;
22060;SDS011;11194;48.092;-1.382;2024-03-02T03:10:43;520.50;;;492.60;;
22060;SDS011;11194;48.092;-1.382;2024-03-02T03:13:10;508.48;;;481.33;;
22060;SDS011;11194;48.092;-1.382;2024-03-02T03:15:36;524.45;;;496.50;;
22060;SDS011;11194;48.092;-1.382;2024-03-02T03:18:05;502.95;;;477.60;;
22060;SDS011;11194;48.092;-1.382;2024-03-02T03:20:35;515.15;;;488.67;;
22060;SDS011;11194;48.092;-1.382;2024-03-02T03:23:01;521.03;;;493.85;;
22060;SDS011;11194;48.092;-1.382;2024-03-02T03:25:29;529.80;;;502.10;;
22060;SDS011;11194;48.092;-1.382;2024-03-02T03:27:55;552.72;;;521.97;;
22060;SDS011;11194;48.092;-1.382;2024-03-02T03:30:21;560.03;;;529.30;;
22060;SDS011;11194;48.092;-1.382;2024-03-02T03:32:47;553.88;;;523.45;;
22060;SDS011;11194;48.092;-1.382;2024-03-02T03:35:13;551.20;;;521.20;;
22060;SDS011;11194;48.092;-1.382;2024-03-02T03:37:40;559.15;;;528.63;;
22060;SDS011;11194;48.092;-1.382;2024-03-02T03:40:07;555.42;;;524.78;;
22060;SDS011;11194;48.092;-1.382;2024-03-02T03:42:36;546.28;;;516.38;;
22060;SDS011;11194;48.092;-1.382;2024-03-02T03:45:03;547.95;;;518.17;;
22060;SDS011;11194;48.092;-1.382;2024-03-02T03:47:30;547.03;;;516.75;;
22060;SDS011;11194;48.092;-1.382;2024-03-02T03:49:56;543.03;;;513.95;;
22060;SDS011;11194;48.092;-1.382;2024-03-02T03:52:23;520.63;;;492.50;;
22060;SDS011;11194;48.092;-1.382;2024-03-02T03:54:49;538.45;;;508.90;;
22060;SDS011;11194;48.092;-1.382;2024-03-02T03:57:15;529.45;;;500.67;;
22060;SDS011;11194;48.092;-1.382;2024-03-02T03:59:41;539.88;;;510.70;;
22060;SDS011;11194;48.092;-1.382;2024-03-02T04:02:07;544.45;;;514.22;;
22060;SDS011;11194;48.092;-1.382;2024-03-02T04:04:34;556.35;;;525.50;;
22060;SDS011;11194;48.092;-1.382;2024-03-02T04:07:00;533.97;;;504.90;;
22060;SDS011;11194;48.092;-1.382;2024-03-02T04:09:26;539.78;;;510.10;;
22060;SDS011;11194;48.092;-1.382;2024-03-02T04:11:52;516.88;;;488.10;;
22060;SDS011;11194;48.092;-1.382;2024-03-02T04:14:19;530.22;;;501.35;;
22060;SDS011;11194;48.092;-1.382;2024-03-02T04:16:45;529.08;;;500.25;;
22060;SDS011;11194;48.092;-1.382;2024-03-02T04:19:11;548.85;;;518.40;;
22060;SDS011;11194;48.092;-1.382;2024-03-02T04:21:37;548.58;;;517.90;;
22060;SDS011;11194;48.092;-1.382;2024-03-02T04:24:03;554.58;;;522.88;;
22060;SDS011;11194;48.092;-1.382;2024-03-02T04:26:29;544.85;;;514.30;;
22060;SDS011;11194;48.092;-1.382;2024-03-02T04:28:55;554.00;;;522.75;;
22060;SDS011;11194;48.092;-1.382;2024-03-02T04:31:21;571.08;;;538.10;;
22060;SDS011;11194;48.092;-1.382;2024-03-02T04:33:47;601.03;;;565.63;;
22060;SDS011;11194;48.092;-1.382;2024-03-02T04:36:13;596.53;;;561.30;;
22060;SDS011;11194;48.092;-1.382;2024-03-02T04:38:39;596.42;;;560.55;;
22060;SDS011;11194;48.092;-1.382;2024-03-02T04:41:06;623.10;;;585.65;;
22060;SDS011;11194;48.092;-1.382;2024-03-02T04:43:32;607.63;;;568.90;;
22060;SDS011;11194;48.092;-1.382;2024-03-02T04:45:58;611.55;;;572.45;;
22060;SDS011;11194;48.092;-1.382;2024-03-02T04:48:24;616.38;;;576.70;;
22060;SDS011;11194;48.092;-1.382;2024-03-02T04:50:51;645.83;;;603.95;;
22060;SDS011;11194;48.092;-1.382;2024-03-02T04:53:17;635.17;;;593.85;;
22060;SDS011;11194;48.092;-1.382;2024-03-02T04:55:43;619.83;;;579.17;;
22060;SDS011;11194;48.092;-1.382;2024-03-02T04:58:09;629.42;;;587.63;;
22060;SDS011;11194;48.092;-1.382;2024-03-02T05:00:35;622.58;;;580.10;;
22060;SDS011;11194;48.092;-1.382;2024-03-02T05:03:04;656.15;;;611.78;;
22060;SDS011;11194;48.092;-1.382;2024-03-02T05:05:30;646.50;;;600.60;;
22060;SDS011;11194;48.092;-1.382;2024-03-02T05:07:56;643.60;;;597.10;;
22060;SDS011;11194;48.092;-1.382;2024-03-02T05:10:22;640.35;;;594.33;;
22060;SDS011;11194;48.092;-1.382;2024-03-02T05:12:49;643.08;;;595.53;;
22060;SDS011;11194;48.092;-1.382;2024-03-02T05:15:22;637.00;;;589.88;;
22060;SDS011;11194;48.092;-1.382;2024-03-02T05:17:48;637.35;;;589.95;;
22060;SDS011;11194;48.092;-1.382;2024-03-02T05:20:14;637.05;;;589.28;;
22060;SDS011;11194;48.092;-1.382;2024-03-02T05:22:40;628.97;;;582.42;;
22060;SDS011;11194;48.092;-1.382;2024-03-02T05:25:06;633.75;;;587.20;;
22060;SDS011;11194;48.092;-1.382;2024-03-02T05:27:32;658.00;;;610.80;;
22060;SDS011;11194;48.092;-1.382;2024-03-02T05:29:59;642.67;;;594.47;;
22060;SDS011;11194;48.092;-1.382;2024-03-02T05:32:25;640.60;;;592.50;;
22060;SDS011;11194;48.092;-1.382;2024-03-02T05:34:51;643.65;;;594.75;;
22060;SDS011;11194;48.092;-1.382;2024-03-02T05:37:17;626.30;;;577.72;;
22060;SDS011;11194;48.092;-1.382;2024-03-02T05:39:43;629.10;;;581.45;;
22060;SDS011;11194;48.092;-1.382;2024-03-02T05:42:09;634.50;;;586.75;;
22060;SDS011;11194;48.092;-1.382;2024-03-02T05:44:35;617.45;;;570.15;;
22060;SDS011;11194;48.092;-1.382;2024-03-02T05:47:02;638.22;;;590.92;;
22060;SDS011;11194;48.092;-1.382;2024-03-02T05:49:28;635.97;;;588.85;;
22060;SDS011;11194;48.092;-1.382;2024-03-02T05:51:54;633.65;;;586.65;;
22060;SDS011;11194;48.092;-1.382;2024-03-02T05:54:20;641.05;;;593.60;;
22060;SDS011;11194;48.092;-1.382;2024-03-02T05:56:46;641.60;;;593.15;;
22060;SDS011;11194;48.092;-1.382;2024-03-02T05:59:12;623.30;;;576.30;;
22060;SDS011;11194;48.092;-1.382;2024-03-02T06:01:42;614.85;;;568.58;;
22060;SDS011;11194;48.092;-1.382;2024-03-02T06:04:08;625.50;;;578.50;;
22060;SDS011;11194;48.092;-1.382;2024-03-02T06:06:36;633.13;;;585.03;;
22060;SDS011;11194;48.092;-1.382;2024-03-02T06:09:02;648.65;;;598.28;;
22060;SDS011;11194;48.092;-1.382;2024-03-02T06:11:36;627.50;;;577.53;;
22060;SDS011;11194;48.092;-1.382;2024-03-02T06:14:03;617.88;;;568.08;;
22060;SDS011;11194;48.092;-1.382;2024-03-02T06:16:29;631.22;;;581.25;;
22060;SDS011;11194;48.092;-1.382;2024-03-02T06:18:55;632.53;;;581.58;;
22060;SDS011;11194;48.092;-1.382;2024-03-02T06:21:23;630.97;;;580.35;;
22060;SDS011;11194;48.092;-1.382;2024-03-02T06:23:49;633.20;;;582.40;;
22060;SDS011;11194;48.092;-1.382;2024-03-02T06:26:15;636.78;;;584.67;;
22060;SDS011;11194;48.092;-1.382;2024-03-02T06:28:41;642.75;;;590.75;;
22060;SDS011;11194;48.092;-1.382;2024-03-02T06:31:11;639.15;;;586.17;;
22060;SDS011;11194;48.092;-1.382;2024-03-02T06:33:37;642.10;;;588.47;;
22060;SDS011;11194;48.092;-1.382;2024-03-02T06:36:03;627.13;;;574.70;;
22060;SDS011;11194;48.092;-1.382;2024-03-02T06:38:29;623.95;;;571.58;;
22060;SDS011;11194;48.092;-1.382;2024-03-02T06:40:58;640.45;;;587.17;;
22060;SDS011;11194;48.092;-1.382;2024-03-02T06:43:24;630.85;;;577.60;;
22060;SDS011;11194;48.092;-1.382;2024-03-02T06:45:51;640.97;;;588.65;;
22060;SDS011;11194;48.092;-1.382;2024-03-02T06:48:17;640.03;;;586.97;;
22060;SDS011;11194;48.092;-1.382;2024-03-02T06:50:48;639.50;;;586.58;;
22060;SDS011;11194;48.092;-1.382;2024-03-02T06:53:14;636.63;;;584.33;;
22060;SDS011;11194;48.092;-1.382;2024-03-02T06:55:43;655.95;;;602.95;;
22060;SDS011;11194;48.092;-1.382;2024-03-02T06:58:10;640.35;;;588.40;;
22060;SDS011;11194;48.092;-1.382;2024-03-02T07:00:37;651.75;;;598.45;;
22060;SDS011;11194;48.092;-1.382;2024-03-02T07:03:03;639.72;;;588.00;;
22060;SDS011;11194;48.092;-1.382;2024-03-02T07:05:29;627.30;;;576.47;;
22060;SDS011;11194;48.092;-1.382;2024-03-02T07:07:55;618.30;;;567.83;;
22060;SDS011;11194;48.092;-1.382;2024-03-02T07:10:21;622.88;;;573.28;;
22060;SDS011;11194;48.092;-1.382;2024-03-02T07:12:47;607.88;;;559.92;;
22060;SDS011;11194;48.092;-1.382;2024-03-02T07:15:13;615.78;;;569.42;;
22060;SDS011;11194;48.092;-1.382;2024-03-02T07:17:52;622.30;;;575.08;;
22060;SDS011;11194;48.092;-1.382;2024-03-02T07:20:18;618.72;;;572.28;;
22060;SDS011;11194;48.092;-1.382;2024-03-02T07:22:44;648.83;;;600.08;;
22060;SDS011;11194;48.092;-1.382;2024-03-02T07:25:10;661.15;;;611.58;;
22060;SDS011;11194;48.092;-1.382;2024-03-02T07:27:36;662.63;;;612.42;;
22060;SDS011;11194;48.092;-1.382;2024-03-02T07:30:02;656.30;;;605.78;;
22060;SDS011;11194;48.092;-1.382;2024-03-02T07:32:28;661.17;;;611.22;;
22060;SDS011;11194;48.092;-1.382;2024-03-02T07:34:54;670.97;;;621.13;;
22060;SDS011;11194;48.092;-1.382;2024-03-02T07:37:21;673.10;;;623.67;;
22060;SDS011;11194;48.092;-1.382;2024-03-02T07:39:47;639.17;;;590.78;;
22060;SDS011;11194;48.092;-1.382;2024-03-02T07:42:13;665.92;;;617.40;;
22060;SDS011;11194;48.092;-1.382;2024-03-02T07:44:39;667.67;;;617.20;;
22060;SDS011;11194;48.092;-1.382;2024-03-02T07:47:05;673.20;;;622.28;;
22060;SDS011;11194;48.092;-1.382;2024-03-02T07:49:32;672.22;;;620.70;;
22060;SDS011;11194;48.092;-1.382;2024-03-02T07:51:58;676.33;;;622.55;;
22060;SDS011;11194;48.092;-1.382;2024-03-02T07:54:24;668.88;;;615.28;;
22060;SDS011;11194;48.092;-1.382;2024-03-02T07:56:50;689.75;;;636.13;;
22060;SDS011;11194;48.092;-1.382;2024-03-02T07:59:16;706.70;;;652.70;;
22060;SDS011;11194;48.092;-1.382;2024-03-02T08:01:42;662.95;;;609.15;;
22060;SDS011;11194;48.092;-1.382;2024-03-02T08:04:08;643.78;;;589.75;;
22060;SDS011;11194;48.092;-1.382;2024-03-02T08:06:34;658.33;;;605.10;;
22060;SDS011;11194;48.092;-1.382;2024-03-02T08:09:00;654.95;;;602.35;;
22060;SDS011;11194;48.092;-1.382;2024-03-02T08:11:27;631.30;;;580.65;;
22060;SDS011;11194;48.092;-1.382;2024-03-02T08:13:54;639.03;;;589.17;;
22060;SDS011;11194;48.092;-1.382;2024-03-02T08:16:20;627.22;;;578.58;;
22060;SDS011;11194;48.092;-1.382;2024-03-02T08:18:47;643.42;;;594.80;;
22060;SDS011;11194;48.092;-1.382;2024-03-02T08:21:13;620.78;;;573.00;;
22060;SDS011;11194;48.092;-1.382;2024-03-02T08:23:39;625.53;;;578.70;;
22060;SDS011;11194;48.092;-1.382;2024-03-02T08:26:07;629.70;;;583.88;;
22060;SDS011;11194;48.092;-1.382;2024-03-02T08:28:33;636.72;;;590.70;;
22060;SDS011;11194;48.092;-1.382;2024-03-02T08:30:59;633.47;;;587.75;;
22060;SDS011;11194;48.092;-1.382;2024-03-02T08:33:26;640.03;;;593.85;;
22060;SDS011;11194;48.092;-1.382;2024-03-02T08:35:52;639.58;;;593.22;;
22060;SDS011;11194;48.092;-1.382;2024-03-02T08:38:18;639.75;;;593.78;;
22060;SDS011;11194;48.092;-1.382;2024-03-02T08:40:44;640.88;;;595.47;;
22060;SDS011;11194;48.092;-1.382;2024-03-02T08:43:10;631.80;;;587.13;;
22060;SDS011;11194;48.092;-1.382;2024-03-02T08:45:36;632.50;;;587.75;;
22060;SDS011;11194;48.092;-1.382;2024-03-02T08:48:04;623.67;;;579.65;;
22060;SDS011;11194;48.092;-1.382;2024-03-02T08:50:30;605.53;;;563.97;;
22060;SDS011;11194;48.092;-1.382;2024-03-02T08:52:57;613.65;;;572.35;;
22060;SDS011;11194;48.092;-1.382;2024-03-02T08:55:23;605.40;;;564.65;;
22060;SDS011;11194;48.092;-1.382;2024-03-02T08:57:49;598.30;;;558.55;;
22060;SDS011;11194;48.092;-1.382;2024-03-02T09:00:15;593.67;;;554.70;;
22060;SDS011;11194;48.092;-1.382;2024-03-02T09:02:43;592.90;;;553.65;;
22060;SDS011;11194;48.092;-1.382;2024-03-02T09:05:09;591.08;;;553.80;;
22060;SDS011;11194;48.092;-1.382;2024-03-02T09:07:35;586.28;;;548.53;;
22060;SDS011;11194;48.092;-1.382;2024-03-02T09:10:03;585.67;;;548.60;;
22060;SDS011;11194;48.092;-1.382;2024-03-02T09:12:29;581.40;;;543.83;;
22060;SDS011;11194;48.092;-1.382;2024-03-02T09:14:55;578.60;;;541.78;;
22060;SDS011;11194;48.092;-1.382;2024-03-02T09:17:22;588.20;;;550.85;;
22060;SDS011;11194;48.092;-1.382;2024-03-02T09:19:49;591.00;;;553.72;;
22060;SDS011;11194;48.092;-1.382;2024-03-02T09:22:18;584.53;;;548.00;;
22060;SDS011;11194;48.092;-1.382;2024-03-02T09:24:44;567.70;;;532.30;;
22060;SDS011;11194;48.092;-1.382;2024-03-02T09:27:10;550.80;;;515.72;;
22060;SDS011;11194;48.092;-1.382;2024-03-02T09:29:36;561.33;;;528.13;;
22060;SDS011;11194;48.092;-1.382;2024-03-02T09:32:02;581.55;;;547.20;;
22060;SDS011;11194;48.092;-1.382;2024-03-02T09:34:28;567.05;;;533.60;;
22060;SDS011;11194;48.092;-1.382;2024-03-02T09:36:54;548.90;;;515.50;;
22060;SDS011;11194;48.092;-1.382;2024-03-02T09:39:20;573.63;;;539.50;;
22060;SDS011;11194;48.092;-1.382;2024-03-02T09:41:47;553.47;;;521.10;;
22060;SDS011;11194;48.092;-1.382;2024-03-02T09:44:13;560.75;;;529.67;;
22060;SDS011;11194;48.092;-1.382;2024-03-02T09:46:40;547.97;;;516.95;;
22060;SDS011;11194;48.092;-1.382;2024-03-02T09:49:08;546.78;;;516.63;;
22060;SDS011;11194;48.092;-1.382;2024-03-02T09:51:35;542.50;;;513.58;;
22060;SDS011;11194;48.092;-1.382;2024-03-02T09:54:02;540.45;;;510.13;;
22060;SDS011;11194;48.092;-1.382;2024-03-02T09:56:28;535.35;;;505.00;;
22060;SDS011;11194;48.092;-1.382;2024-03-02T09:58:54;506.00;;;479.30;;
22060;SDS011;11194;48.092;-1.382;2024-03-02T10:01:20;528.92;;;500.92;;
22060;SDS011;11194;48.092;-1.382;2024-03-02T10:03:47;481.60;;;457.20;;
22060;SDS011;11194;48.092;-1.382;2024-03-02T10:06:24;444.17;;;423.35;;
22060;SDS011;11194;48.092;-1.382;2024-03-02T10:08:50;462.05;;;439.63;;
22060;SDS011;11194;48.092;-1.382;2024-03-02T10:11:26;480.88;;;456.67;;
22060;SDS011;11194;48.092;-1.382;2024-03-02T10:16:41;469.13;;;446.73;;
22060;SDS011;11194;48.092;-1.382;2024-03-02T10:19:23;446.38;;;425.67;;
22060;SDS011;11194;48.092;-1.382;2024-03-02T10:21:50;408.48;;;390.70;;
22060;SDS011;11194;48.092;-1.382;2024-03-02T10:24:19;381.30;;;365.60;;
22060;SDS011;11194;48.092;-1.382;2024-03-02T10:26:46;413.80;;;396.08;;
22060;SDS011;11194;48.092;-1.382;2024-03-02T10:29:12;409.90;;;392.23;;
22060;SDS011;11194;48.092;-1.382;2024-03-02T10:31:39;417.63;;;399.13;;
22060;SDS011;11194;48.092;-1.382;2024-03-02T10:34:06;317.73;;;305.75;;
22060;SDS011;11194;48.092;-1.382;2024-03-02T10:36:33;243.13;;;234.55;;
22060;SDS011;11194;48.092;-1.382;2024-03-02T10:39:01;257.08;;;247.98;;
22060;SDS011;11194;48.092;-1.382;2024-03-02T10:41:27;202.27;;;195.25;;
22060;SDS011;11194;48.092;-1.382;2024-03-02T10:43:54;160.35;;;154.65;;
22060;SDS011;11194;48.092;-1.382;2024-03-02T10:46:25;232.38;;;224.30;;
22060;SDS011;11194;48.092;-1.382;2024-03-02T10:48:54;211.98;;;204.65;;
22060;SDS011;11194;48.092;-1.382;2024-03-02T10:51:21;160.80;;;155.10;;
22060;SDS011;11194;48.092;-1.382;2024-03-02T10:53:47;232.50;;;224.48;;
22060;SDS011;11194;48.092;-1.382;2024-03-02T10:56:14;146.95;;;141.65;;
22060;SDS011;11194;48.092;-1.382;2024-03-02T10:58:41;105.93;;;102.03;;
22060;SDS011;11194;48.092;-1.382;2024-03-02T11:01:07;66.95;;;64.35;;
22060;SDS011;11194;48.092;-1.382;2024-03-02T11:03:36;71.85;;;69.07;;
22060;SDS011;11194;48.092;-1.382;2024-03-02T11:06:07;45.15;;;43.35;;
22060;SDS011;11194;48.092;-1.382;2024-03-02T11:08:33;54.67;;;52.50;;
22060;SDS011;11194;48.092;-1.382;2024-03-02T11:11:02;26.65;;;25.60;;
22060;SDS011;11194;48.092;-1.382;2024-03-02T11:13:32;21.92;;;21.02;;
22060;SDS011;11194;48.092;-1.382;2024-03-02T11:18:45;37.10;;;35.63;;
22060;SDS011;11194;48.092;-1.382;2024-03-02T11:21:11;28.73;;;27.63;;
22060;SDS011;11194;48.092;-1.382;2024-03-02T11:23:38;30.42;;;29.23;;
22060;SDS011;11194;48.092;-1.382;2024-03-02T11:26:19;24.85;;;23.85;;
22060;SDS011;11194;48.092;-1.382;2024-03-02T11:28:45;8.98;;;8.68;;
22060;SDS011;11194;48.092;-1.382;2024-03-02T11:31:11;14.23;;;13.70;;
22060;SDS011;11194;48.092;-1.382;2024-03-02T11:33:37;13.55;;;13.05;;
22060;SDS011;11194;48.092;-1.382;2024-03-02T11:36:03;9.68;;;9.30;;
22060;SDS011;11194;48.092;-1.382;2024-03-02T11:38:32;3.40;;;3.30;;
22060;SDS011;11194;48.092;-1.382;2024-03-02T11:41:02;6.78;;;6.55;;
22060;SDS011;11194;48.092;-1.382;2024-03-02T11:43:28;2.55;;;2.45;;
22060;SDS011;11194;48.092;-1.382;2024-03-02T11:45:58;4.95;;;4.75;;
22060;SDS011;11194;48.092;-1.382;2024-03-02T11:48:25;4.72;;;4.53;;
22060;SDS011;11194;48.092;-1.382;2024-03-02T11:50:51;1.60;;;1.60;;
22060;SDS011;11194;48.092;-1.382;2024-03-02T11:53:18;1.88;;;1.85;;
22060;SDS011;11194;48.092;-1.382;2024-03-02T11:55:44;2.70;;;2.60;;
22060;SDS011;11194;48.092;-1.382;2024-03-02T11:58:11;1.23;;;1.23;;
22060;SDS011;11194;48.092;-1.382;2024-03-02T12:00:38;3.40;;;3.30;;
22060;SDS011;11194;48.092;-1.382;2024-03-02T12:03:08;6.10;;;5.90;;
22060;SDS011;11194;48.092;-1.382;2024-03-02T12:05:34;5.18;;;4.97;;
22060;SDS011;11194;48.092;-1.382;2024-03-02T12:08:02;2.65;;;2.55;;
22060;SDS011;11194;48.092;-1.382;2024-03-02T12:10:28;6.97;;;6.72;;
22060;SDS011;11194;48.092;-1.382;2024-03-02T12:12:57;18.13;;;17.42;;
22060;SDS011;11194;48.092;-1.382;2024-03-02T12:15:28;8.45;;;8.15;;
22060;SDS011;11194;48.092;-1.382;2024-03-02T12:17:54;6.78;;;6.55;;
22060;SDS011;11194;48.092;-1.382;2024-03-02T12:20:21;5.30;;;5.10;;
22060;SDS011;11194;48.092;-1.382;2024-03-02T12:22:49;3.83;;;3.72;;
22060;SDS011;11194;48.092;-1.382;2024-03-02T12:25:15;5.32;;;5.13;;
22060;SDS011;11194;48.092;-1.382;2024-03-02T12:27:42;3.00;;;2.90;;
22060;SDS011;11194;48.092;-1.382;2024-03-02T12:30:08;2.35;;;2.25;;
22060;SDS011;11194;48.092;-1.382;2024-03-02T12:32:36;1.30;;;1.30;;
22060;SDS011;11194;48.092;-1.382;2024-03-02T12:35:04;0.70;;;0.70;;
22060;SDS011;11194;48.092;-1.382;2024-03-02T12:37:30;1.45;;;1.45;;
22060;SDS011;11194;48.092;-1.382;2024-03-02T12:39:56;0.40;;;0.40;;
22060;SDS011;11194;48.092;-1.382;2024-03-02T12:42:24;0.40;;;0.40;;
22060;SDS011;11194;48.092;-1.382;2024-03-02T12:44:53;0.20;;;0.20;;
22060;SDS011;11194;48.092;-1.382;2024-03-02T12:47:20;0.10;;;0.10;;
22060;SDS011;11194;48.092;-1.382;2024-03-02T12:49:46;0.30;;;0.30;;
22060;SDS011;11194;48.092;-1.382;2024-03-02T12:52:12;0.20;;;0.20;;
22060;SDS011;11194;48.092;-1.382;2024-03-02T12:54:38;0.10;;;0.10;;
22060;SDS011;11194;48.092;-1.382;2024-03-02T12:57:05;0.10;;;0.10;;
22060;SDS011;11194;48.092;-1.382;2024-03-02T12:59:31;0.10;;;0.10;;
22060;SDS011;11194;48.092;-1.382;2024-03-02T13:01:57;0.08;;;0.08;;
22060;SDS011;11194;48.092;-1.382;2024-03-02T13:04:27;0.20;;;0.20;;
22060;SDS011;11194;48.092;-1.382;2024-03-02T13:06:54;0.22;;;0.22;;
22060;SDS011;11194;48.092;-1.382;2024-03-02T13:09:24;0.10;;;0.10;;
22060;SDS011;11194;48.092;-1.382;2024-03-02T13:11:50;0.30;;;0.30;;
22060;SDS011;11194;48.092;-1.382;2024-03-02T13:14:16;0.20;;;0.20;;
22060;SDS011;11194;48.092;-1.382;2024-03-02T13:16:42;0.13;;;0.13;;
22060;SDS011;11194;48.092;-1.382;2024-03-02T13:19:11;0.20;;;0.20;;
22060;SDS011;11194;48.092;-1.382;2024-03-02T13:21:37;0.10;;;0.10;;
22060;SDS011;11194;48.092;-1.382;2024-03-02T13:24:04;0.30;;;0.30;;
22060;SDS011;11194;48.092;-1.382;2024-03-02T13:26:30;0.20;;;0.20;;
22060;SDS011;11194;48.092;-1.382;2024-03-02T13:28:56;0.20;;;0.20;;
22060;SDS011;11194;48.092;-1.382;2024-03-02T13:31:22;0.20;;;0.20;;
22060;SDS011;11194;48.092;-1.382;2024-03-02T13:33:48;0.10;;;0.10;;
22060;SDS011;11194;48.092;-1.382;2024-03-02T13:36:14;0.10;;;0.10;;
22060;SDS011;11194;48.092;-1.382;2024-03-02T13:38:40;0.10;;;0.10;;
22060;SDS011;11194;48.092;-1.382;2024-03-02T13:41:06;0.10;;;0.10;;
22060;SDS011;11194;48.092;-1.382;2024-03-02T13:43:33;0.05;;;0.05;;
22060;SDS011;11194;48.092;-1.382;2024-03-02T13:46:01;0.20;;;0.20;;
22060;SDS011;11194;48.092;-1.382;2024-03-02T13:48:27;0.10;;;0.10;;
22060;SDS011;11194;48.092;-1.382;2024-03-02T13:50:53;0.10;;;0.10;;
22060;SDS011;11194;48.092;-1.382;2024-03-02T13:53:19;0.10;;;0.10;;
22060;SDS011;11194;48.092;-1.382;2024-03-02T13:55:45;0.10;;;0.10;;
22060;SDS011;11194;48.092;-1.382;2024-03-02T13:58:11;0.00;;;0.00;;